createdAt,value
2024-02-09T00:00:33.532Z,19.97
2024-02-09T00:03:01.969Z,21.47
2024-02-09T00:05:32.369Z,21.60
2024-02-09T00:08:06.754Z,20.90
2024-02-09T00:10:38.405Z,21.00
2024-02-09T00:13:06.806Z,21.50
2024-02-09T00:15:34.687Z,21.50
2024-02-09T00:18:04.998Z,21.87
2024-02-09T00:20:32.771Z,21.40
2024-02-09T00:23:00.078Z,21.77
2024-02-09T00:25:27.982Z,21.30
2024-02-09T00:27:55.901Z,20.33
2024-02-09T00:30:23.220Z,21.60
2024-02-09T00:32:52.872Z,22.27
2024-02-09T00:35:25.851Z,22.20
2024-02-09T00:37:57.240Z,22.20
2024-02-09T00:40:25.743Z,21.50
2024-02-09T00:42:53.051Z,21.97
2024-02-09T00:45:21.044Z,21.83
2024-02-09T00:47:48.816Z,22.27
2024-02-09T00:50:19.915Z,21.60
2024-02-09T00:52:54.253Z,22.50
2024-02-09T00:55:21.855Z,21.33
2024-02-09T00:57:48.987Z,21.10
2024-02-09T01:00:16.798Z,19.83
2024-02-09T01:02:46.467Z,19.93
2024-02-09T01:05:16.934Z,19.80
2024-02-09T01:07:44.268Z,19.00
2024-02-09T01:10:12.468Z,19.20
2024-02-09T01:12:59.343Z,19.53
2024-02-09T01:15:45.065Z,20.40
2024-02-09T01:18:30.828Z,19.87
2024-02-09T01:21:16.783Z,20.97
2024-02-09T01:24:02.465Z,21.23
2024-02-09T01:26:48.246Z,20.43
2024-02-09T01:29:33.932Z,20.37
2024-02-09T01:32:20.155Z,20.97
2024-02-09T01:35:06.116Z,21.70
2024-02-09T01:37:51.718Z,20.70
2024-02-09T01:40:37.333Z,21.73
2024-02-09T01:43:24.473Z,21.93
2024-02-09T01:46:12.932Z,23.97
2024-02-09T01:49:00.917Z,22.50
2024-02-09T01:51:49.507Z,24.00
2024-02-09T01:54:35.701Z,23.63
2024-02-09T01:57:21.447Z,24.37
2024-02-09T02:00:11.014Z,24.37
2024-02-09T02:03:01.033Z,24.07
2024-02-09T02:05:47.119Z,24.50
2024-02-09T02:08:33.265Z,24.43
2024-02-09T02:11:20.122Z,24.27
2024-02-09T02:14:05.595Z,24.40
2024-02-09T02:16:51.340Z,23.60
2024-02-09T02:19:37.894Z,23.13
2024-02-09T02:22:48.144Z,23.47
2024-02-09T02:25:33.795Z,23.00
2024-02-09T02:28:19.460Z,22.00
2024-02-09T02:31:05.571Z,22.83
2024-02-09T02:33:51.092Z,21.30
2024-02-09T02:36:36.660Z,22.10
2024-02-09T02:39:22.095Z,21.70
2024-02-09T02:41:49.019Z,22.27
2024-02-09T02:44:15.950Z,20.67
2024-02-09T02:46:47.052Z,20.37
2024-02-09T02:49:33.482Z,22.03
2024-02-09T02:52:19.232Z,21.20
2024-02-09T02:55:05.286Z,21.50
2024-02-09T02:57:50.763Z,20.00
2024-02-09T03:00:36.594Z,20.20
2024-02-09T03:03:22.358Z,19.60
2024-02-09T03:05:49.512Z,20.43
2024-02-09T03:08:45.413Z,20.63
2024-02-09T03:11:05.013Z,19.97
2024-02-09T03:13:33.852Z,19.57
2024-02-09T03:16:01.851Z,20.20
2024-02-09T03:18:29.436Z,19.90
2024-02-09T03:20:56.699Z,20.20
2024-02-09T03:23:23.742Z,20.33
2024-02-09T03:25:50.712Z,20.47
2024-02-09T03:28:20.305Z,20.37
2024-02-09T03:30:47.657Z,20.23
2024-02-09T03:33:14.985Z,20.67
2024-02-09T03:35:42.332Z,21.27
2024-02-09T03:38:09.520Z,21.30
2024-02-09T03:40:36.648Z,20.87
2024-02-09T03:43:03.827Z,20.40
2024-02-09T03:45:30.939Z,21.50
2024-02-09T03:47:58.303Z,21.23
2024-02-09T03:50:25.561Z,21.63
2024-02-09T03:52:52.680Z,21.33
2024-02-09T03:55:19.735Z,22.13
2024-02-09T03:57:46.848Z,20.97
2024-02-09T04:00:17.298Z,22.50
2024-02-09T04:02:44.900Z,22.10
2024-02-09T04:05:12.253Z,21.03
2024-02-09T04:07:40.068Z,22.53
2024-02-09T04:10:32.193Z,22.00
2024-02-09T04:12:55.434Z,22.47
2024-02-09T04:15:22.518Z,21.27
2024-02-09T04:17:53.491Z,22.20
2024-02-09T04:20:20.715Z,21.00
2024-02-09T04:22:49.589Z,21.63
2024-02-09T04:25:16.728Z,21.47
2024-02-09T04:27:45.629Z,19.97
2024-02-09T04:30:16.402Z,20.63
2024-02-09T04:32:44.314Z,21.00
2024-02-09T04:35:13.092Z,21.63
2024-02-09T04:37:40.710Z,20.57
2024-02-09T04:40:08.373Z,21.97
2024-02-09T04:42:35.471Z,22.17
2024-02-09T04:45:02.664Z,23.67
2024-02-09T04:47:29.925Z,23.70
2024-02-09T04:49:57.106Z,23.93
2024-02-09T04:52:28.948Z,23.63
2024-02-09T04:54:56.227Z,23.77
2024-02-09T04:57:23.205Z,24.23
2024-02-09T04:59:50.218Z,23.60
2024-02-09T05:02:17.148Z,23.53
2024-02-09T05:04:49.076Z,24.67
2024-02-09T05:07:16.329Z,23.93
2024-02-09T05:09:43.522Z,24.60
2024-02-09T05:12:10.482Z,23.23
2024-02-09T05:14:37.486Z,24.77
2024-02-09T05:17:04.662Z,23.90
2024-02-09T05:19:31.767Z,24.07
2024-02-09T05:21:59.567Z,26.03
2024-02-09T05:24:28.819Z,25.37
2024-02-09T05:26:56.036Z,25.03
2024-02-09T05:29:23.147Z,25.43
2024-02-09T05:31:50.723Z,24.37
2024-02-09T05:34:19.487Z,25.67
2024-02-09T05:36:46.462Z,25.67
2024-02-09T05:39:13.432Z,26.53
2024-02-09T05:41:40.478Z,25.57
2024-02-09T05:44:08.464Z,26.43
2024-02-09T05:46:35.646Z,25.30
2024-02-09T05:49:02.889Z,25.60
2024-02-09T05:51:30.344Z,25.83
2024-02-09T05:53:58.165Z,28.13
2024-02-09T05:56:28.832Z,26.60
2024-02-09T05:59:00.026Z,25.67
2024-02-09T06:01:31.883Z,26.00
2024-02-09T06:03:59.320Z,25.97
2024-02-09T06:06:27.422Z,25.40
2024-02-09T06:08:54.691Z,26.20
2024-02-09T06:11:21.813Z,25.00
2024-02-09T06:13:49.722Z,25.70
2024-02-09T06:16:17.796Z,25.23
2024-02-09T06:18:47.090Z,25.13
2024-02-09T06:21:20.748Z,23.50
2024-02-09T06:23:48.410Z,23.23
2024-02-09T06:26:19.943Z,24.30
2024-02-09T06:28:51.743Z,22.33
2024-02-09T06:31:26.342Z,22.23
2024-02-09T06:33:57.004Z,22.97
2024-02-09T06:36:25.153Z,21.67
2024-02-09T06:38:54.309Z,21.30
2024-02-09T06:41:21.757Z,21.63
2024-02-09T06:43:49.586Z,20.20
2024-02-09T06:46:19.712Z,20.83
2024-02-09T06:48:48.686Z,19.73
2024-02-09T06:51:20.612Z,20.70
2024-02-09T06:53:48.661Z,20.17
2024-02-09T06:56:15.681Z,19.87
2024-02-09T06:58:42.886Z,19.27
2024-02-09T07:01:12.545Z,18.90
2024-02-09T07:03:41.162Z,18.47
2024-02-09T07:06:09.619Z,17.50
2024-02-09T07:08:43.586Z,17.80
2024-02-09T07:11:14.060Z,18.97
2024-02-09T07:13:43.784Z,18.43
2024-02-09T07:16:11.525Z,17.07
2024-02-09T07:18:41.060Z,17.43
2024-02-09T07:21:12.052Z,16.90
2024-02-09T07:23:39.249Z,17.07
2024-02-09T07:26:09.272Z,17.70
2024-02-09T07:28:36.946Z,18.00
2024-02-09T07:31:04.642Z,16.37
2024-02-09T07:33:32.061Z,16.40
2024-02-09T07:35:59.511Z,16.27
2024-02-09T07:38:26.508Z,15.73
2024-02-09T07:40:53.598Z,15.27
2024-02-09T07:43:22.278Z,15.00
2024-02-09T07:45:49.415Z,15.73
2024-02-09T07:48:16.450Z,14.50
2024-02-09T07:50:44.158Z,14.37
2024-02-09T07:53:15.860Z,14.47
2024-02-09T07:55:43.219Z,14.47
2024-02-09T07:58:10.326Z,14.47
2024-02-09T08:00:37.361Z,13.57
2024-02-09T08:03:04.595Z,13.23
2024-02-09T08:05:31.746Z,13.37
2024-02-09T08:07:58.756Z,12.03
2024-02-09T08:10:25.850Z,11.83
2024-02-09T08:12:52.978Z,11.73
2024-02-09T08:15:20.263Z,10.47
2024-02-09T08:17:53.270Z,10.90
2024-02-09T08:20:21.403Z,10.00
2024-02-09T08:22:49.556Z,10.53
2024-02-09T08:25:17.508Z,10.00
2024-02-09T08:27:44.593Z,9.73
2024-02-09T08:30:11.954Z,8.70
2024-02-09T08:32:40.199Z,9.03
2024-02-09T08:35:08.052Z,9.23
2024-02-09T08:37:36.604Z,9.10
2024-02-09T08:40:04.215Z,8.67
2024-02-09T08:42:31.322Z,8.70
2024-02-09T08:44:59.099Z,9.47
2024-02-09T08:47:26.424Z,9.37
2024-02-09T08:49:53.840Z,8.03
2024-02-09T08:52:21.050Z,8.17
2024-02-09T08:54:48.082Z,8.73
2024-02-09T08:57:16.161Z,8.23
2024-02-09T08:59:43.387Z,7.90
2024-02-09T09:02:12.591Z,7.90
2024-02-09T09:04:40.065Z,8.27
2024-02-09T09:07:08.514Z,8.07
2024-02-09T09:09:35.901Z,8.23
2024-02-09T09:12:08.704Z,8.30
2024-02-09T09:14:41.217Z,7.20
2024-02-09T09:17:17.868Z,7.97
2024-02-09T09:19:52.044Z,8.27
2024-02-09T09:22:19.963Z,8.00
2024-02-09T09:24:48.213Z,7.03
2024-02-09T09:27:15.483Z,6.93
2024-02-09T09:29:42.587Z,7.10
2024-02-09T09:32:09.672Z,7.07
2024-02-09T09:34:37.074Z,7.20
2024-02-09T09:37:06.139Z,7.47
2024-02-09T09:39:33.368Z,7.10
2024-02-09T09:42:02.247Z,6.80
2024-02-09T09:44:30.098Z,7.00
2024-02-09T09:46:59.742Z,7.30
2024-02-09T09:49:30.354Z,6.50
2024-02-09T09:52:02.007Z,6.73
2024-02-09T09:54:33.705Z,6.47
2024-02-09T09:57:01.744Z,6.70
2024-02-09T09:59:30.461Z,6.67
2024-02-09T10:01:58.341Z,5.90
2024-02-09T10:04:25.786Z,6.57
2024-02-09T10:06:53.955Z,6.27
2024-02-09T10:09:21.091Z,6.43
2024-02-09T10:11:50.588Z,6.07
2024-02-09T10:14:18.286Z,6.07
2024-02-09T10:16:48.990Z,5.57
2024-02-09T10:19:18.949Z,6.10
2024-02-09T10:24:18.927Z,5.80
2024-02-09T10:26:47.836Z,5.10
2024-02-09T10:29:16.422Z,5.10
2024-02-09T10:31:44.146Z,5.17
2024-02-09T10:34:11.625Z,5.50
2024-02-09T10:36:42.373Z,5.17
2024-02-09T10:39:09.683Z,5.47
2024-02-09T10:41:38.531Z,5.63
2024-02-09T10:44:09.766Z,5.00
2024-02-09T10:46:40.372Z,5.23
2024-02-09T10:49:10.612Z,5.57
2024-02-09T10:51:40.405Z,5.17
2024-02-09T10:54:23.055Z,5.13
2024-02-09T10:56:56.849Z,5.20
2024-02-09T10:59:25.057Z,5.67
2024-02-09T11:01:52.471Z,5.70
2024-02-09T11:04:20.205Z,6.13
2024-02-09T11:06:50.755Z,6.07
2024-02-09T11:09:18.757Z,6.27
2024-02-09T11:11:49.395Z,6.87
2024-02-09T11:14:19.378Z,6.10
2024-02-09T11:16:51.935Z,5.97
2024-02-09T11:19:19.990Z,6.43
2024-02-09T11:21:58.937Z,6.60
2024-02-09T11:24:29.417Z,6.20
2024-02-09T11:27:00.507Z,6.47
2024-02-09T11:29:27.919Z,6.30
2024-02-09T11:31:58.448Z,6.30
2024-02-09T11:34:28.424Z,6.13
2024-02-09T11:37:02.913Z,6.07
2024-02-09T11:39:32.633Z,6.23
2024-02-09T11:41:59.782Z,5.83
2024-02-09T11:44:27.353Z,6.07
2024-02-09T11:46:54.592Z,5.80
2024-02-09T11:49:25.265Z,6.10
2024-02-09T11:52:00.530Z,6.20
2024-02-09T11:54:28.022Z,6.47
2024-02-09T11:56:59.076Z,5.90
2024-02-09T11:59:27.187Z,6.83
2024-02-09T12:01:57.139Z,6.60
2024-02-09T12:04:25.679Z,6.30
2024-02-09T12:06:54.049Z,6.33
2024-02-09T12:09:21.512Z,6.53
2024-02-09T12:11:48.676Z,6.50
2024-02-09T12:14:15.895Z,6.27
2024-02-09T12:16:43.063Z,5.77
2024-02-09T12:19:11.478Z,6.43
2024-02-09T12:21:39.739Z,6.17
2024-02-09T12:24:10.691Z,6.90
2024-02-09T12:26:39.431Z,6.07
2024-02-09T12:29:13.788Z,6.57
2024-02-09T12:31:47.889Z,6.17
2024-02-09T12:34:16.288Z,6.17
2024-02-09T12:37:00.758Z,6.00
2024-02-09T12:39:29.148Z,6.13
2024-02-09T12:42:01.301Z,6.23
2024-02-09T12:44:31.704Z,6.20
2024-02-09T12:47:04.483Z,5.90
2024-02-09T12:49:35.533Z,6.07
2024-02-09T12:52:03.243Z,5.53
2024-02-09T12:54:30.292Z,6.10
2024-02-09T12:56:57.299Z,5.43
2024-02-09T12:59:24.542Z,6.20
2024-02-09T13:01:51.795Z,5.40
2024-02-09T13:04:19.064Z,5.60
2024-02-09T13:06:46.157Z,5.63
2024-02-09T13:09:13.114Z,5.83
2024-02-09T13:11:40.185Z,5.73
2024-02-09T13:14:07.213Z,5.77
2024-02-09T13:16:34.229Z,6.45
2024-02-09T13:19:01.514Z,5.63
2024-02-09T13:21:29.038Z,6.10
2024-02-09T13:23:56.155Z,5.27
2024-02-09T13:26:24.435Z,5.20
2024-02-09T13:28:51.608Z,5.33
2024-02-09T13:31:18.982Z,5.37
2024-02-09T13:33:46.338Z,5.43
2024-02-09T13:36:15.038Z,5.87
2024-02-09T13:38:43.691Z,5.60
2024-02-09T13:41:10.862Z,6.13
2024-02-09T13:43:37.981Z,5.97
2024-02-09T13:46:06.781Z,6.30
2024-02-09T13:48:34.121Z,6.40
2024-02-09T13:51:02.264Z,5.93
2024-02-09T13:53:29.252Z,6.33
2024-02-09T13:55:56.332Z,6.70
2024-02-09T13:58:23.513Z,7.37
2024-02-09T14:00:50.691Z,7.77
2024-02-09T14:03:17.897Z,6.33
2024-02-09T14:05:48.576Z,6.97
2024-02-09T14:08:18.543Z,6.63
2024-02-09T14:10:45.716Z,6.27
2024-02-09T14:13:12.719Z,6.20
2024-02-09T14:15:39.792Z,6.33
2024-02-09T14:18:06.978Z,6.30
2024-02-09T14:20:34.102Z,6.37
2024-02-09T14:23:04.154Z,5.73
2024-02-09T14:25:32.070Z,6.30
2024-02-09T14:27:59.281Z,6.30
2024-02-09T14:30:26.375Z,6.20
2024-02-09T14:32:55.555Z,6.83
2024-02-09T14:35:22.899Z,6.40
2024-02-09T14:37:50.667Z,6.00
2024-02-09T14:40:18.669Z,5.90
2024-02-09T14:42:45.824Z,6.10
2024-02-09T14:45:17.231Z,6.27
2024-02-09T14:47:45.142Z,6.17
2024-02-09T14:50:12.385Z,6.40
2024-02-09T14:52:44.081Z,6.37
2024-02-09T14:55:11.992Z,5.93
2024-02-09T14:57:39.599Z,6.30
2024-02-09T15:00:08.353Z,6.60
2024-02-09T15:02:35.412Z,6.57
2024-02-09T15:05:04.830Z,6.30
2024-02-09T15:07:32.127Z,7.10
2024-02-09T15:09:59.139Z,6.30
2024-02-09T15:12:27.717Z,7.30
2024-02-09T15:14:54.717Z,6.77
2024-02-09T15:17:24.370Z,6.80
2024-02-09T15:19:51.947Z,6.50
2024-02-09T15:22:19.707Z,6.43
2024-02-09T15:24:46.784Z,6.87
2024-02-09T15:27:17.207Z,6.73
2024-02-09T15:29:47.295Z,6.47
2024-02-09T15:32:14.546Z,6.77
2024-02-09T15:34:45.409Z,6.73
2024-02-09T15:37:13.865Z,7.47
2024-02-09T15:39:41.297Z,7.40
2024-02-09T15:42:09.996Z,7.23
2024-02-09T15:44:38.295Z,7.37
2024-02-09T15:47:05.481Z,6.97
2024-02-09T15:49:34.217Z,6.80
2024-02-09T15:52:01.541Z,7.50
2024-02-09T15:54:28.617Z,7.20
2024-02-09T15:56:55.648Z,7.77
2024-02-09T15:59:25.753Z,7.53
2024-02-09T16:01:54.871Z,7.67
2024-02-09T16:04:22.384Z,7.30
2024-02-09T16:06:50.591Z,7.80
2024-02-09T16:09:19.434Z,7.60
2024-02-09T16:11:49.796Z,7.60
2024-02-09T16:14:17.755Z,7.70
2024-02-09T16:16:45.356Z,7.83
2024-02-09T16:19:12.879Z,7.80
2024-02-09T16:21:42.250Z,7.50
2024-02-09T16:24:10.970Z,8.07
2024-02-09T16:26:40.121Z,7.80
2024-02-09T16:29:10.224Z,7.77
2024-02-09T16:31:39.600Z,7.80
2024-02-09T16:34:07.592Z,8.17
2024-02-09T16:36:38.125Z,8.67
2024-02-09T16:39:05.387Z,8.17
2024-02-09T16:41:32.486Z,8.10
2024-02-09T16:43:59.993Z,7.73
2024-02-09T16:46:30.003Z,8.20
2024-02-09T16:48:58.123Z,8.83
2024-02-09T16:51:25.626Z,9.00
2024-02-09T16:53:52.958Z,8.87
2024-02-09T16:56:20.060Z,8.20
2024-02-09T16:58:47.277Z,8.10
2024-02-09T17:01:14.513Z,8.00
2024-02-09T17:03:42.277Z,7.67
2024-02-09T17:06:12.439Z,8.40
2024-02-09T17:08:39.661Z,8.40
2024-02-09T17:11:08.493Z,8.10
2024-02-09T17:13:36.369Z,7.97
2024-02-09T17:16:05.266Z,8.40
2024-02-09T17:18:32.617Z,8.30
2024-02-09T17:20:59.968Z,7.67
2024-02-09T17:23:26.968Z,8.10
2024-02-09T17:25:54.181Z,8.10
2024-02-09T17:28:21.284Z,7.67
2024-02-09T17:30:48.647Z,8.00
2024-02-09T17:33:16.284Z,8.93
2024-02-09T17:35:43.572Z,8.70
2024-02-09T17:38:10.837Z,8.10
2024-02-09T17:40:38.026Z,7.90
2024-02-09T17:43:05.078Z,9.90
2024-02-09T17:45:36.924Z,10.80
2024-02-09T17:48:08.245Z,8.43
2024-02-09T17:50:35.607Z,7.80
2024-02-09T17:53:03.377Z,7.73
2024-02-09T17:55:30.524Z,7.40
2024-02-09T17:57:57.638Z,8.50
2024-02-09T18:00:25.239Z,8.23
2024-02-09T18:02:52.383Z,8.37
2024-02-09T18:05:20.794Z,9.50
2024-02-09T18:07:48.556Z,7.63
2024-02-09T18:10:19.545Z,7.87
2024-02-09T18:12:46.827Z,7.37
2024-02-09T18:15:14.000Z,7.53
2024-02-09T18:17:41.023Z,7.43
2024-02-09T18:20:10.510Z,7.67
2024-02-09T18:22:38.103Z,7.30
2024-02-09T18:25:05.645Z,6.93
2024-02-09T18:27:32.761Z,7.33
2024-02-09T18:30:00.738Z,7.53
2024-02-09T18:32:28.853Z,7.00
2024-02-09T18:34:56.542Z,7.90
2024-02-09T18:37:23.751Z,7.63
2024-02-09T18:39:51.965Z,6.87
2024-02-09T18:42:19.201Z,6.77
2024-02-09T18:44:46.361Z,7.47
2024-02-09T18:47:14.537Z,7.90
2024-02-09T18:49:42.157Z,7.33
2024-02-09T18:52:10.120Z,7.47
2024-02-09T18:54:40.864Z,8.40
2024-02-09T18:57:08.112Z,7.83
2024-02-09T18:59:35.218Z,7.63
2024-02-09T19:02:02.362Z,7.80
2024-02-09T19:04:29.863Z,7.73
2024-02-09T19:06:57.317Z,7.60
2024-02-09T19:09:24.425Z,7.77
2024-02-09T19:11:51.774Z,7.63
2024-02-09T19:14:19.249Z,8.10
2024-02-09T19:16:48.729Z,7.80
2024-02-09T19:19:18.642Z,7.60
2024-02-09T19:21:48.950Z,7.87
2024-02-09T19:24:17.455Z,7.77
2024-02-09T19:26:45.869Z,8.40
2024-02-09T19:29:12.893Z,8.50
2024-02-09T19:31:40.026Z,8.10
2024-02-09T19:34:09.332Z,8.07
2024-02-09T19:36:36.638Z,8.20
2024-02-09T19:39:05.139Z,8.13
2024-02-09T19:41:35.127Z,8.17
2024-02-09T19:44:05.049Z,8.70
2024-02-09T19:46:32.536Z,8.37
2024-02-09T19:49:05.821Z,8.37
2024-02-09T19:51:33.217Z,8.00
2024-02-09T19:54:01.593Z,8.30
2024-02-09T19:56:28.727Z,7.77
2024-02-09T19:58:56.904Z,7.60
2024-02-09T20:01:27.625Z,7.77
2024-02-09T20:03:56.636Z,8.40
2024-02-09T20:06:24.034Z,7.73
2024-02-09T20:08:51.169Z,8.80
2024-02-09T20:11:18.240Z,8.20
2024-02-09T20:13:46.206Z,8.37
2024-02-09T20:16:13.464Z,8.50
2024-02-09T20:18:42.703Z,9.47
2024-02-09T20:21:09.851Z,8.80
2024-02-09T20:23:38.613Z,8.20
2024-02-09T20:26:06.900Z,8.07
2024-02-09T20:28:34.847Z,8.87
2024-02-09T20:31:02.547Z,8.97
2024-02-09T20:33:29.941Z,8.30
2024-02-09T20:35:57.082Z,9.80
2024-02-09T20:38:26.162Z,9.60
2024-02-09T20:40:54.466Z,9.33
2024-02-09T20:43:26.031Z,9.53
2024-02-09T20:45:54.587Z,9.53
2024-02-09T20:48:23.971Z,9.77
2024-02-09T20:50:52.937Z,9.90
2024-02-09T20:53:22.244Z,8.93
2024-02-09T20:55:52.256Z,9.13
2024-02-09T20:58:22.634Z,10.20
2024-02-09T21:00:49.963Z,10.00
2024-02-09T21:03:17.483Z,10.20
2024-02-09T21:05:50.395Z,10.20
2024-02-09T21:08:19.949Z,9.83
2024-02-09T21:10:47.760Z,9.77
2024-02-09T21:13:16.332Z,10.77
2024-02-09T21:15:44.887Z,10.37
2024-02-09T21:18:12.039Z,10.60
2024-02-09T21:20:39.928Z,10.83
2024-02-09T21:23:08.871Z,12.00
2024-02-09T21:25:36.250Z,11.00
2024-02-09T21:28:03.802Z,10.80
2024-02-09T21:30:30.833Z,11.33
2024-02-09T21:33:01.476Z,11.50
2024-02-09T21:35:31.186Z,11.37
2024-02-09T21:37:59.236Z,11.00
2024-02-09T21:40:30.683Z,11.30
2024-02-09T21:43:04.455Z,12.87
2024-02-09T21:45:31.960Z,13.07
2024-02-09T21:47:59.241Z,12.03
2024-02-09T21:50:26.738Z,13.00
2024-02-09T21:52:54.128Z,12.63
2024-02-09T21:55:22.207Z,12.93
2024-02-09T21:57:49.762Z,13.47
2024-02-09T22:00:20.653Z,13.30
2024-02-09T22:02:48.003Z,12.87
2024-02-09T22:05:17.486Z,14.10
2024-02-09T22:07:47.154Z,13.93
2024-02-09T22:10:16.962Z,14.00
2024-02-09T22:12:45.212Z,14.20
2024-02-09T22:15:15.154Z,14.93
2024-02-09T22:17:42.287Z,15.07
2024-02-09T22:20:11.950Z,14.33
2024-02-09T22:22:39.995Z,14.17
2024-02-09T22:25:09.439Z,14.70
2024-02-09T22:27:37.576Z,15.23
2024-02-09T22:30:08.981Z,15.40
2024-02-09T22:32:41.329Z,15.03
2024-02-09T22:35:13.126Z,15.80
2024-02-09T22:37:41.487Z,15.07
2024-02-09T22:40:15.847Z,15.77
2024-02-09T22:42:44.707Z,16.00
2024-02-09T22:45:13.290Z,15.37
2024-02-09T22:47:42.610Z,15.73
2024-02-09T22:50:12.167Z,17.20
2024-02-09T22:52:39.575Z,17.30
2024-02-09T22:55:07.146Z,16.50
2024-02-09T22:57:35.405Z,16.57
2024-02-09T23:00:09.985Z,17.37
2024-02-09T23:02:37.009Z,17.33
2024-02-09T23:05:04.304Z,16.97
2024-02-09T23:07:33.381Z,16.60
2024-02-09T23:10:08.339Z,17.20
2024-02-09T23:12:39.962Z,17.10
2024-02-09T23:15:12.156Z,16.40
2024-02-09T23:17:50.329Z,16.90
2024-02-09T23:20:21.350Z,17.63
2024-02-09T23:22:52.785Z,17.70
2024-02-09T23:25:21.112Z,17.80
2024-02-09T23:27:49.018Z,17.60
2024-02-09T23:30:16.092Z,17.33
2024-02-09T23:32:43.997Z,17.70
2024-02-09T23:35:13.763Z,17.83
2024-02-09T23:37:42.475Z,17.20
2024-02-09T23:40:11.661Z,18.10
2024-02-09T23:42:40.257Z,17.57
2024-02-09T23:45:10.027Z,17.90
2024-02-09T23:47:40.071Z,19.40
2024-02-09T23:50:09.590Z,18.27
2024-02-09T23:52:39.027Z,18.33
2024-02-09T23:55:15.861Z,17.97
2024-02-09T23:57:46.230Z,18.90
